sensor_id;sensor_type;location;lat;lon;timestamp;temperature;humidity
2783;DHT22;1399;47.072;15.452;2023-04-03T00:01:15;12.20;35.90
2783;DHT22;1399;47.072;15.452;2023-04-03T00:03:41;12.20;35.60
2783;DHT22;1399;47.072;15.452;2023-04-03T00:06:07;12.20;35.50
2783;DHT22;1399;47.072;15.452;2023-04-03T00:08:35;12.10;35.40
2783;DHT22;1399;47.072;15.452;2023-04-03T00:11:01;12.10;35.20
2783;DHT22;1399;47.072;15.452;2023-04-03T00:13:27;12.10;35.10
2783;DHT22;1399;47.072;15.452;2023-04-03T00:15:53;12.10;35.10
2783;DHT22;1399;47.072;15.452;2023-04-03T00:18:20;12.10;35.10
2783;DHT22;1399;47.072;15.452;2023-04-03T00:20:47;12.10;35.10
2783;DHT22;1399;47.072;15.452;2023-04-03T00:23:13;12.00;35.00
2783;DHT22;1399;47.072;15.452;2023-04-03T00:25:38;12.00;34.90
2783;DHT22;1399;47.072;15.452;2023-04-03T00:28:05;12.00;34.90
2783;DHT22;1399;47.072;15.452;2023-04-03T00:30:31;12.00;34.90
2783;DHT22;1399;47.072;15.452;2023-04-03T00:32:57;12.00;34.90
2783;DHT22;1399;47.072;15.452;2023-04-03T00:35:23;12.00;34.90
2783;DHT22;1399;47.072;15.452;2023-04-03T00:37:53;12.00;34.90
2783;DHT22;1399;47.072;15.452;2023-04-03T00:40:22;11.90;34.90
2783;DHT22;1399;47.072;15.452;2023-04-03T00:42:52;11.90;34.90
2783;DHT22;1399;47.072;15.452;2023-04-03T00:47:52;11.90;34.90
2783;DHT22;1399;47.072;15.452;2023-04-03T00:50:18;11.80;34.90
2783;DHT22;1399;47.072;15.452;2023-04-03T00:52:43;11.80;34.90
2783;DHT22;1399;47.072;15.452;2023-04-03T00:55:12;11.80;35.00
2783;DHT22;1399;47.072;15.452;2023-04-03T00:57:40;11.70;35.00
2783;DHT22;1399;47.072;15.452;2023-04-03T01:00:11;11.70;35.00
2783;DHT22;1399;47.072;15.452;2023-04-03T01:02:38;11.70;35.10
2783;DHT22;1399;47.072;15.452;2023-04-03T01:05:06;11.70;35.10
2783;DHT22;1399;47.072;15.452;2023-04-03T01:07:33;11.70;35.20
2783;DHT22;1399;47.072;15.452;2023-04-03T01:10:06;11.70;35.20
2783;DHT22;1399;47.072;15.452;2023-04-03T01:12:41;11.60;35.20
2783;DHT22;1399;47.072;15.452;2023-04-03T01:15:26;11.60;35.30
2783;DHT22;1399;47.072;15.452;2023-04-03T01:17:58;11.60;35.30
2783;DHT22;1399;47.072;15.452;2023-04-03T01:25:38;11.50;35.50
2783;DHT22;1399;47.072;15.452;2023-04-03T01:28:06;11.50;35.60
2783;DHT22;1399;47.072;15.452;2023-04-03T01:30:39;11.40;35.40
2783;DHT22;1399;47.072;15.452;2023-04-03T01:33:06;11.40;35.50
2783;DHT22;1399;47.072;15.452;2023-04-03T01:35:32;11.40;35.60
2783;DHT22;1399;47.072;15.452;2023-04-03T01:37:58;11.40;35.60
2783;DHT22;1399;47.072;15.452;2023-04-03T01:40:24;11.30;35.40
2783;DHT22;1399;47.072;15.452;2023-04-03T01:42:49;11.30;35.50
2783;DHT22;1399;47.072;15.452;2023-04-03T01:45:15;11.30;35.50
2783;DHT22;1399;47.072;15.452;2023-04-03T01:47:41;11.30;35.60
2783;DHT22;1399;47.072;15.452;2023-04-03T01:50:07;11.30;35.60
2783;DHT22;1399;47.072;15.452;2023-04-03T01:52:32;11.30;35.60
2783;DHT22;1399;47.072;15.452;2023-04-03T01:54:58;11.30;35.70
2783;DHT22;1399;47.072;15.452;2023-04-03T01:57:24;11.20;35.70
2783;DHT22;1399;47.072;15.452;2023-04-03T01:59:50;11.20;36.40
2783;DHT22;1399;47.072;15.452;2023-04-03T02:02:16;11.20;35.70
2783;DHT22;1399;47.072;15.452;2023-04-03T02:04:42;11.20;35.70
2783;DHT22;1399;47.072;15.452;2023-04-03T02:07:08;11.20;35.70
2783;DHT22;1399;47.072;15.452;2023-04-03T02:09:33;11.20;35.80
2783;DHT22;1399;47.072;15.452;2023-04-03T02:11:59;11.20;35.80
2783;DHT22;1399;47.072;15.452;2023-04-03T02:14:25;11.20;35.80
2783;DHT22;1399;47.072;15.452;2023-04-03T02:16:52;11.20;35.90
2783;DHT22;1399;47.072;15.452;2023-04-03T02:19:18;11.10;35.80
2783;DHT22;1399;47.072;15.452;2023-04-03T02:21:44;11.10;35.90
2783;DHT22;1399;47.072;15.452;2023-04-03T02:24:10;11.10;36.00
2783;DHT22;1399;47.072;15.452;2023-04-03T02:26:35;11.10;36.00
2783;DHT22;1399;47.072;15.452;2023-04-03T02:29:01;11.10;36.00
2783;DHT22;1399;47.072;15.452;2023-04-03T02:31:27;11.10;36.10
2783;DHT22;1399;47.072;15.452;2023-04-03T02:33:52;11.10;36.10
2783;DHT22;1399;47.072;15.452;2023-04-03T02:36:18;11.00;36.00
2783;DHT22;1399;47.072;15.452;2023-04-03T02:38:44;11.00;36.00
2783;DHT22;1399;47.072;15.452;2023-04-03T02:41:11;11.00;36.00
2783;DHT22;1399;47.072;15.452;2023-04-03T02:43:38;11.00;36.10
2783;DHT22;1399;47.072;15.452;2023-04-03T02:46:04;11.00;36.10
2783;DHT22;1399;47.072;15.452;2023-04-03T02:48:31;10.90;36.00
2783;DHT22;1399;47.072;15.452;2023-04-03T02:50:57;10.90;35.80
2783;DHT22;1399;47.072;15.452;2023-04-03T02:53:22;10.90;35.60
2783;DHT22;1399;47.072;15.452;2023-04-03T02:55:49;10.90;35.50
2783;DHT22;1399;47.072;15.452;2023-04-03T02:58:14;10.90;35.30
2783;DHT22;1399;47.072;15.452;2023-04-03T03:00:40;10.90;35.30
2783;DHT22;1399;47.072;15.452;2023-04-03T03:03:06;10.90;35.00
2783;DHT22;1399;47.072;15.452;2023-04-03T03:05:32;10.90;34.80
2783;DHT22;1399;47.072;15.452;2023-04-03T03:07:58;10.90;34.70
2783;DHT22;1399;47.072;15.452;2023-04-03T03:10:24;10.90;34.50
2783;DHT22;1399;47.072;15.452;2023-04-03T03:12:50;10.90;34.50
2783;DHT22;1399;47.072;15.452;2023-04-03T03:15:16;10.90;34.30
2783;DHT22;1399;47.072;15.452;2023-04-03T03:17:43;10.90;35.00
2783;DHT22;1399;47.072;15.452;2023-04-03T03:20:09;10.90;34.40
2783;DHT22;1399;47.072;15.452;2023-04-03T03:22:35;10.90;34.10
2783;DHT22;1399;47.072;15.452;2023-04-03T03:25:02;10.90;34.10
2783;DHT22;1399;47.072;15.452;2023-04-03T03:27:28;10.90;34.10
2783;DHT22;1399;47.072;15.452;2023-04-03T03:29:54;10.90;34.00
2783;DHT22;1399;47.072;15.452;2023-04-03T03:32:20;10.90;34.10
2783;DHT22;1399;47.072;15.452;2023-04-03T03:34:45;10.90;34.00
2783;DHT22;1399;47.072;15.452;2023-04-03T03:37:11;10.90;34.00
2783;DHT22;1399;47.072;15.452;2023-04-03T03:39:37;10.90;33.90
2783;DHT22;1399;47.072;15.452;2023-04-03T03:42:03;10.90;34.00
2783;DHT22;1399;47.072;15.452;2023-04-03T03:44:29;10.90;34.00
2783;DHT22;1399;47.072;15.452;2023-04-03T03:46:55;10.90;34.00
2783;DHT22;1399;47.072;15.452;2023-04-03T03:49:21;10.90;34.00
2783;DHT22;1399;47.072;15.452;2023-04-03T03:51:47;10.90;34.10
2783;DHT22;1399;47.072;15.452;2023-04-03T03:54:13;10.90;34.10
2783;DHT22;1399;47.072;15.452;2023-04-03T03:56:39;10.90;34.20
2783;DHT22;1399;47.072;15.452;2023-04-03T03:59:05;10.90;34.20
2783;DHT22;1399;47.072;15.452;2023-04-03T04:01:31;10.90;34.20
2783;DHT22;1399;47.072;15.452;2023-04-03T04:03:57;10.90;34.30
2783;DHT22;1399;47.072;15.452;2023-04-03T04:06:23;10.90;34.30
2783;DHT22;1399;47.072;15.452;2023-04-03T04:08:49;10.90;34.20
2783;DHT22;1399;47.072;15.452;2023-04-03T04:11:14;11.00;34.30
2783;DHT22;1399;47.072;15.452;2023-04-03T04:13:40;11.00;34.20
2783;DHT22;1399;47.072;15.452;2023-04-03T04:16:07;11.00;34.20
2783;DHT22;1399;47.072;15.452;2023-04-03T04:18:33;11.00;34.20
2783;DHT22;1399;47.072;15.452;2023-04-03T04:20:58;11.00;34.10
2783;DHT22;1399;47.072;15.452;2023-04-03T04:23:24;11.00;34.10
2783;DHT22;1399;47.072;15.452;2023-04-03T04:25:50;11.00;34.00
2783;DHT22;1399;47.072;15.452;2023-04-03T04:28:16;11.10;34.00
2783;DHT22;1399;47.072;15.452;2023-04-03T04:30:42;11.10;33.90
2783;DHT22;1399;47.072;15.452;2023-04-03T04:33:08;11.10;33.80
2783;DHT22;1399;47.072;15.452;2023-04-03T04:35:34;11.10;33.70
2783;DHT22;1399;47.072;15.452;2023-04-03T04:38:00;11.20;33.80
2783;DHT22;1399;47.072;15.452;2023-04-03T04:40:26;11.20;33.50
2783;DHT22;1399;47.072;15.452;2023-04-03T04:42:51;11.30;33.50
2783;DHT22;1399;47.072;15.452;2023-04-03T04:45:18;11.30;33.60
2783;DHT22;1399;47.072;15.452;2023-04-03T04:47:44;11.30;33.50
2783;DHT22;1399;47.072;15.452;2023-04-03T04:50:10;11.40;33.50
2783;DHT22;1399;47.072;15.452;2023-04-03T04:52:37;11.40;33.20
2783;DHT22;1399;47.072;15.452;2023-04-03T04:55:03;11.40;33.00
2783;DHT22;1399;47.072;15.452;2023-04-03T04:57:29;11.50;33.10
2783;DHT22;1399;47.072;15.452;2023-04-03T04:59:55;11.50;33.00
2783;DHT22;1399;47.072;15.452;2023-04-03T05:02:21;11.50;33.00
2783;DHT22;1399;47.072;15.452;2023-04-03T05:04:46;11.50;33.00
2783;DHT22;1399;47.072;15.452;2023-04-03T05:07:12;11.60;33.00
2783;DHT22;1399;47.072;15.452;2023-04-03T05:09:38;11.60;33.00
2783;DHT22;1399;47.072;15.452;2023-04-03T05:12:04;11.70;33.00
2783;DHT22;1399;47.072;15.452;2023-04-03T05:14:30;11.70;33.00
2783;DHT22;1399;47.072;15.452;2023-04-03T05:16:55;11.70;32.80
2783;DHT22;1399;47.072;15.452;2023-04-03T05:19:21;11.70;32.80
2783;DHT22;1399;47.072;15.452;2023-04-03T05:21:47;11.80;32.80
2783;DHT22;1399;47.072;15.452;2023-04-03T05:24:14;11.80;32.70
2783;DHT22;1399;47.072;15.452;2023-04-03T05:26:41;11.80;32.60
2783;DHT22;1399;47.072;15.452;2023-04-03T05:29:07;11.80;32.60
2783;DHT22;1399;47.072;15.452;2023-04-03T05:31:33;11.90;32.40
2783;DHT22;1399;47.072;15.452;2023-04-03T05:33:59;11.90;32.40
2783;DHT22;1399;47.072;15.452;2023-04-03T05:36:25;11.90;32.40
2783;DHT22;1399;47.072;15.452;2023-04-03T05:38:51;11.90;32.40
2783;DHT22;1399;47.072;15.452;2023-04-03T05:41:17;11.90;32.40
2783;DHT22;1399;47.072;15.452;2023-04-03T05:43:43;11.90;32.30
2783;DHT22;1399;47.072;15.452;2023-04-03T05:46:14;12.00;32.30
2783;DHT22;1399;47.072;15.452;2023-04-03T05:48:41;12.00;32.10
2783;DHT22;1399;47.072;15.452;2023-04-03T05:51:09;12.10;32.00
2783;DHT22;1399;47.072;15.452;2023-04-03T05:53:39;12.10;31.90
2783;DHT22;1399;47.072;15.452;2023-04-03T05:56:05;12.20;31.80
2783;DHT22;1399;47.072;15.452;2023-04-03T05:58:49;12.20;31.60
2783;DHT22;1399;47.072;15.452;2023-04-03T06:01:15;12.20;31.50
2783;DHT22;1399;47.072;15.452;2023-04-03T06:03:41;12.20;31.60
2783;DHT22;1399;47.072;15.452;2023-04-03T06:06:07;12.20;31.60
2783;DHT22;1399;47.072;15.452;2023-04-03T06:08:33;12.30;31.70
2783;DHT22;1399;47.072;15.452;2023-04-03T06:10:59;12.30;31.50
2783;DHT22;1399;47.072;15.452;2023-04-03T06:13:27;12.30;31.40
2783;DHT22;1399;47.072;15.452;2023-04-03T06:15:53;12.30;31.20
2783;DHT22;1399;47.072;15.452;2023-04-03T06:18:18;12.30;31.20
2783;DHT22;1399;47.072;15.452;2023-04-03T06:20:45;12.30;31.10
2783;DHT22;1399;47.072;15.452;2023-04-03T06:23:11;12.40;31.10
2783;DHT22;1399;47.072;15.452;2023-04-03T06:25:37;12.40;31.00
2783;DHT22;1399;47.072;15.452;2023-04-03T06:28:03;12.40;31.10
2783;DHT22;1399;47.072;15.452;2023-04-03T06:30:28;12.40;31.00
2783;DHT22;1399;47.072;15.452;2023-04-03T06:32:54;12.50;31.20
2783;DHT22;1399;47.072;15.452;2023-04-03T06:35:20;12.60;31.10
2783;DHT22;1399;47.072;15.452;2023-04-03T06:37:49;12.70;31.10
2783;DHT22;1399;47.072;15.452;2023-04-03T06:40:22;12.80;30.90
2783;DHT22;1399;47.072;15.452;2023-04-03T06:42:48;12.80;30.70
2783;DHT22;1399;47.072;15.452;2023-04-03T06:45:14;12.90;31.30
2783;DHT22;1399;47.072;15.452;2023-04-03T06:47:40;13.00;30.60
2783;DHT22;1399;47.072;15.452;2023-04-03T06:50:06;13.10;30.70
2783;DHT22;1399;47.072;15.452;2023-04-03T06:52:32;13.20;30.60
2783;DHT22;1399;47.072;15.452;2023-04-03T06:54:58;13.30;30.70
2783;DHT22;1399;47.072;15.452;2023-04-03T06:57:25;13.40;30.60
2783;DHT22;1399;47.072;15.452;2023-04-03T06:59:51;13.50;30.40
2783;DHT22;1399;47.072;15.452;2023-04-03T07:02:17;13.50;30.30
2783;DHT22;1399;47.072;15.452;2023-04-03T07:04:43;13.60;30.30
2783;DHT22;1399;47.072;15.452;2023-04-03T07:07:09;13.60;30.20
2783;DHT22;1399;47.072;15.452;2023-04-03T07:09:34;13.70;30.10
2783;DHT22;1399;47.072;15.452;2023-04-03T07:12:00;13.70;30.10
2783;DHT22;1399;47.072;15.452;2023-04-03T07:14:26;13.70;30.10
2783;DHT22;1399;47.072;15.452;2023-04-03T07:16:51;13.70;30.10
2783;DHT22;1399;47.072;15.452;2023-04-03T07:19:17;13.70;30.00
2783;DHT22;1399;47.072;15.452;2023-04-03T07:21:44;13.70;30.00
2783;DHT22;1399;47.072;15.452;2023-04-03T07:24:10;13.70;30.00
2783;DHT22;1399;47.072;15.452;2023-04-03T07:26:36;13.70;30.00
2783;DHT22;1399;47.072;15.452;2023-04-03T07:29:02;13.70;30.00
2783;DHT22;1399;47.072;15.452;2023-04-03T07:31:28;13.70;29.90
2783;DHT22;1399;47.072;15.452;2023-04-03T07:33:54;13.70;29.80
2783;DHT22;1399;47.072;15.452;2023-04-03T07:36:22;13.80;29.80
2783;DHT22;1399;47.072;15.452;2023-04-03T07:38:48;13.70;29.60
2783;DHT22;1399;47.072;15.452;2023-04-03T07:41:17;13.80;29.60
2783;DHT22;1399;47.072;15.452;2023-04-03T07:43:44;13.80;29.30
2783;DHT22;1399;47.072;15.452;2023-04-03T07:46:10;13.80;29.10
2783;DHT22;1399;47.072;15.452;2023-04-03T07:48:36;13.80;29.00
2783;DHT22;1399;47.072;15.452;2023-04-03T07:51:03;13.80;28.70
2783;DHT22;1399;47.072;15.452;2023-04-03T07:53:30;13.90;28.70
2783;DHT22;1399;47.072;15.452;2023-04-03T07:55:59;13.90;28.60
2783;DHT22;1399;47.072;15.452;2023-04-03T07:58:25;14.00;28.50
2783;DHT22;1399;47.072;15.452;2023-04-03T08:00:52;14.00;28.30
2783;DHT22;1399;47.072;15.452;2023-04-03T08:03:18;14.00;28.00
2783;DHT22;1399;47.072;15.452;2023-04-03T08:05:46;14.00;27.70
2783;DHT22;1399;47.072;15.452;2023-04-03T08:08:14;14.00;27.40
2783;DHT22;1399;47.072;15.452;2023-04-03T08:10:41;14.00;27.20
2783;DHT22;1399;47.072;15.452;2023-04-03T08:13:07;14.00;27.20
2783;DHT22;1399;47.072;15.452;2023-04-03T08:15:33;13.90;27.00
2783;DHT22;1399;47.072;15.452;2023-04-03T08:18:01;13.90;26.80
2783;DHT22;1399;47.072;15.452;2023-04-03T08:20:27;13.90;26.80
2783;DHT22;1399;47.072;15.452;2023-04-03T08:22:53;13.90;26.80
2783;DHT22;1399;47.072;15.452;2023-04-03T08:25:20;13.90;26.90
2783;DHT22;1399;47.072;15.452;2023-04-03T08:27:46;14.00;26.80
2783;DHT22;1399;47.072;15.452;2023-04-03T08:30:12;14.00;26.70
2783;DHT22;1399;47.072;15.452;2023-04-03T08:32:38;14.10;26.60
2783;DHT22;1399;47.072;15.452;2023-04-03T08:35:07;14.10;26.40
2783;DHT22;1399;47.072;15.452;2023-04-03T08:37:35;14.10;26.30
2783;DHT22;1399;47.072;15.452;2023-04-03T08:40:03;14.10;26.20
2783;DHT22;1399;47.072;15.452;2023-04-03T08:42:41;14.10;26.20
2783;DHT22;1399;47.072;15.452;2023-04-03T08:45:15;14.10;26.20
2783;DHT22;1399;47.072;15.452;2023-04-03T08:47:53;14.10;26.10
2783;DHT22;1399;47.072;15.452;2023-04-03T08:50:33;14.10;26.00
2783;DHT22;1399;47.072;15.452;2023-04-03T08:53:02;14.10;25.80
2783;DHT22;1399;47.072;15.452;2023-04-03T08:55:37;14.20;25.50
2783;DHT22;1399;47.072;15.452;2023-04-03T08:58:09;14.20;25.20
2783;DHT22;1399;47.072;15.452;2023-04-03T09:03:16;14.30;24.80
2783;DHT22;1399;47.072;15.452;2023-04-03T09:14:24;14.30;23.80
2783;DHT22;1399;47.072;15.452;2023-04-03T09:16:57;14.20;23.60
2783;DHT22;1399;47.072;15.452;2023-04-03T09:24:43;14.20;23.30
2783;DHT22;1399;47.072;15.452;2023-04-03T09:27:11;14.10;23.10
2783;DHT22;1399;47.072;15.452;2023-04-03T09:29:41;14.10;23.00
2783;DHT22;1399;47.072;15.452;2023-04-03T09:32:34;14.10;23.00
2783;DHT22;1399;47.072;15.452;2023-04-03T09:37:43;14.00;23.00
2783;DHT22;1399;47.072;15.452;2023-04-03T09:40:29;14.00;23.00
2783;DHT22;1399;47.072;15.452;2023-04-03T09:43:01;14.00;23.00
2783;DHT22;1399;47.072;15.452;2023-04-03T09:45:35;14.00;22.90
2783;DHT22;1399;47.072;15.452;2023-04-03T09:48:16;14.00;22.80
2783;DHT22;1399;47.072;15.452;2023-04-03T09:50:57;14.00;22.70
2783;DHT22;1399;47.072;15.452;2023-04-03T09:53:44;14.00;22.60
2783;DHT22;1399;47.072;15.452;2023-04-03T09:58:44;14.10;22.60
2783;DHT22;1399;47.072;15.452;2023-04-03T10:04:15;14.10;22.60
2783;DHT22;1399;47.072;15.452;2023-04-03T10:06:44;14.20;22.60
2783;DHT22;1399;47.072;15.452;2023-04-03T10:09:22;14.20;22.50
2783;DHT22;1399;47.072;15.452;2023-04-03T10:17:17;14.20;22.50
2783;DHT22;1399;47.072;15.452;2023-04-03T10:39:18;14.40;23.10
2783;DHT22;1399;47.072;15.452;2023-04-03T10:44:45;14.40;23.20
2783;DHT22;1399;47.072;15.452;2023-04-03T10:47:24;14.40;23.40
2783;DHT22;1399;47.072;15.452;2023-04-03T10:49:58;14.40;23.50
2783;DHT22;1399;47.072;15.452;2023-04-03T10:52:40;14.40;23.60
2783;DHT22;1399;47.072;15.452;2023-04-03T10:57:45;14.50;23.50
2783;DHT22;1399;47.072;15.452;2023-04-03T11:00:21;14.50;23.50
2783;DHT22;1399;47.072;15.452;2023-04-03T11:02:57;14.50;23.50
2783;DHT22;1399;47.072;15.452;2023-04-03T11:05:36;14.60;23.50
2783;DHT22;1399;47.072;15.452;2023-04-03T11:11:09;14.60;23.30
2783;DHT22;1399;47.072;15.452;2023-04-03T11:14:57;14.60;23.30
2783;DHT22;1399;47.072;15.452;2023-04-03T11:19:38;14.60;22.90
2783;DHT22;1399;47.072;15.452;2023-04-03T11:22:16;14.60;22.80
2783;DHT22;1399;47.072;15.452;2023-04-03T11:24:55;14.70;22.70
2783;DHT22;1399;47.072;15.452;2023-04-03T11:27:23;14.60;22.50
2783;DHT22;1399;47.072;15.452;2023-04-03T11:29:50;14.70;22.40
2783;DHT22;1399;47.072;15.452;2023-04-03T11:35:19;14.70;22.40
2783;DHT22;1399;47.072;15.452;2023-04-03T11:37:48;14.70;22.40
2783;DHT22;1399;47.072;15.452;2023-04-03T11:42:55;14.60;22.50
2783;DHT22;1399;47.072;15.452;2023-04-03T11:47:55;14.50;22.30
2783;DHT22;1399;47.072;15.452;2023-04-03T11:50:41;14.50;22.40
2783;DHT22;1399;47.072;15.452;2023-04-03T12:13:36;14.20;22.70
2783;DHT22;1399;47.072;15.452;2023-04-03T12:16:04;14.20;22.70
2783;DHT22;1399;47.072;15.452;2023-04-03T12:21:15;14.30;22.70
2783;DHT22;1399;47.072;15.452;2023-04-03T12:48:18;14.50;21.50
2783;DHT22;1399;47.072;15.452;2023-04-03T12:50:47;14.50;21.50
2783;DHT22;1399;47.072;15.452;2023-04-03T12:53:29;14.40;21.40
2783;DHT22;1399;47.072;15.452;2023-04-03T12:56:27;14.40;21.60
2783;DHT22;1399;47.072;15.452;2023-04-03T12:58:55;14.40;21.70
2783;DHT22;1399;47.072;15.452;2023-04-03T13:01:24;14.30;21.80
2783;DHT22;1399;47.072;15.452;2023-04-03T13:03:56;14.30;21.80
2783;DHT22;1399;47.072;15.452;2023-04-03T13:06:23;14.30;21.90
2783;DHT22;1399;47.072;15.452;2023-04-03T13:09:00;14.30;22.00
2783;DHT22;1399;47.072;15.452;2023-04-03T13:11:40;14.20;22.10
2783;DHT22;1399;47.072;15.452;2023-04-03T13:14:22;14.20;22.20
2783;DHT22;1399;47.072;15.452;2023-04-03T13:16:56;14.10;22.30
2783;DHT22;1399;47.072;15.452;2023-04-03T13:19:24;14.00;22.30
2783;DHT22;1399;47.072;15.452;2023-04-03T13:21:58;13.90;22.30
2783;DHT22;1399;47.072;15.452;2023-04-03T13:24:25;13.90;22.40
2783;DHT22;1399;47.072;15.452;2023-04-03T13:26:51;13.80;22.50
2783;DHT22;1399;47.072;15.452;2023-04-03T13:29:31;13.70;22.50
2783;DHT22;1399;47.072;15.452;2023-04-03T13:31:58;13.70;22.50
2783;DHT22;1399;47.072;15.452;2023-04-03T13:34:26;13.60;22.40
2783;DHT22;1399;47.072;15.452;2023-04-03T13:39:28;13.60;22.50
2783;DHT22;1399;47.072;15.452;2023-04-03T13:41:57;13.60;22.50
2783;DHT22;1399;47.072;15.452;2023-04-03T13:44:31;13.70;22.60
2783;DHT22;1399;47.072;15.452;2023-04-03T13:47:21;13.70;22.50
2783;DHT22;1399;47.072;15.452;2023-04-03T13:54:57;13.80;22.40
2783;DHT22;1399;47.072;15.452;2023-04-03T13:57:24;13.80;22.40
2783;DHT22;1399;47.072;15.452;2023-04-03T13:59:50;13.90;22.50
2783;DHT22;1399;47.072;15.452;2023-04-03T14:02:31;13.80;22.50
2783;DHT22;1399;47.072;15.452;2023-04-03T14:04:59;13.80;22.40
2783;DHT22;1399;47.072;15.452;2023-04-03T14:07:28;13.80;22.40
2783;DHT22;1399;47.072;15.452;2023-04-03T14:09:55;13.80;22.40
2783;DHT22;1399;47.072;15.452;2023-04-03T14:14:55;13.80;22.20
2783;DHT22;1399;47.072;15.452;2023-04-03T14:17:23;13.80;22.00
2783;DHT22;1399;47.072;15.452;2023-04-03T14:19:51;13.90;22.00
2783;DHT22;1399;47.072;15.452;2023-04-03T14:22:20;13.80;21.90
2783;DHT22;1399;47.072;15.452;2023-04-03T14:24:48;13.90;21.90
2783;DHT22;1399;47.072;15.452;2023-04-03T14:27:44;13.90;21.90
2783;DHT22;1399;47.072;15.452;2023-04-03T14:30:28;13.80;22.00
2783;DHT22;1399;47.072;15.452;2023-04-03T14:32:55;13.80;22.10
2783;DHT22;1399;47.072;15.452;2023-04-03T14:35:22;13.80;22.10
2783;DHT22;1399;47.072;15.452;2023-04-03T14:37:49;13.70;22.00
2783;DHT22;1399;47.072;15.452;2023-04-03T14:40:22;13.70;22.00
2783;DHT22;1399;47.072;15.452;2023-04-03T14:42:48;13.60;21.80
2783;DHT22;1399;47.072;15.452;2023-04-03T14:45:15;13.60;21.80
2783;DHT22;1399;47.072;15.452;2023-04-03T14:47:52;13.50;21.70
2783;DHT22;1399;47.072;15.452;2023-04-03T14:50:23;13.40;21.80
2783;DHT22;1399;47.072;15.452;2023-04-03T14:52:52;13.40;21.90
2783;DHT22;1399;47.072;15.452;2023-04-03T14:55:21;13.40;22.50
2783;DHT22;1399;47.072;15.452;2023-04-03T14:57:47;13.40;22.00
2783;DHT22;1399;47.072;15.452;2023-04-03T15:00:22;13.40;22.10
2783;DHT22;1399;47.072;15.452;2023-04-03T15:02:48;13.40;22.20
2783;DHT22;1399;47.072;15.452;2023-04-03T15:05:15;13.40;22.20
2783;DHT22;1399;47.072;15.452;2023-04-03T15:07:53;13.40;22.30
2783;DHT22;1399;47.072;15.452;2023-04-03T15:10:22;13.30;22.20
2783;DHT22;1399;47.072;15.452;2023-04-03T15:12:50;13.30;22.20
2783;DHT22;1399;47.072;15.452;2023-04-03T15:15:17;13.30;22.10
2783;DHT22;1399;47.072;15.452;2023-04-03T15:17:44;13.30;22.00
2783;DHT22;1399;47.072;15.452;2023-04-03T15:20:13;13.20;21.80
2783;DHT22;1399;47.072;15.452;2023-04-03T15:22:40;13.20;21.80
2783;DHT22;1399;47.072;15.452;2023-04-03T15:25:06;13.10;21.80
2783;DHT22;1399;47.072;15.452;2023-04-03T15:27:32;13.00;22.30
2783;DHT22;1399;47.072;15.452;2023-04-03T15:29:58;13.00;21.80
2783;DHT22;1399;47.072;15.452;2023-04-03T15:32:24;12.90;21.80
2783;DHT22;1399;47.072;15.452;2023-04-03T15:34:50;12.90;21.80
2783;DHT22;1399;47.072;15.452;2023-04-03T15:37:16;12.80;21.70
2783;DHT22;1399;47.072;15.452;2023-04-03T15:39:41;12.80;21.70
2783;DHT22;1399;47.072;15.452;2023-04-03T15:42:07;12.70;21.70
2783;DHT22;1399;47.072;15.452;2023-04-03T15:44:34;12.70;21.70
2783;DHT22;1399;47.072;15.452;2023-04-03T15:47:00;12.70;21.70
2783;DHT22;1399;47.072;15.452;2023-04-03T15:49:27;12.60;21.60
2783;DHT22;1399;47.072;15.452;2023-04-03T15:51:53;12.60;22.20
2783;DHT22;1399;47.072;15.452;2023-04-03T15:54:19;12.50;22.20
2783;DHT22;1399;47.072;15.452;2023-04-03T15:56:46;12.40;21.70
2783;DHT22;1399;47.072;15.452;2023-04-03T15:59:11;12.40;21.70
2783;DHT22;1399;47.072;15.452;2023-04-03T16:01:38;12.40;21.80
2783;DHT22;1399;47.072;15.452;2023-04-03T16:04:05;12.40;21.90
2783;DHT22;1399;47.072;15.452;2023-04-03T16:06:33;12.30;22.00
2783;DHT22;1399;47.072;15.452;2023-04-03T16:08:59;12.30;22.10
2783;DHT22;1399;47.072;15.452;2023-04-03T16:11:26;12.30;22.20
2783;DHT22;1399;47.072;15.452;2023-04-03T16:13:52;12.20;22.40
2783;DHT22;1399;47.072;15.452;2023-04-03T16:16:18;12.20;22.50
2783;DHT22;1399;47.072;15.452;2023-04-03T16:18:44;12.20;22.60
2783;DHT22;1399;47.072;15.452;2023-04-03T16:21:13;12.20;22.60
2783;DHT22;1399;47.072;15.452;2023-04-03T16:23:40;12.10;22.40
2783;DHT22;1399;47.072;15.452;2023-04-03T16:26:06;12.10;22.30
2783;DHT22;1399;47.072;15.452;2023-04-03T16:28:32;12.10;22.20
2783;DHT22;1399;47.072;15.452;2023-04-03T16:34:20;12.00;22.30
2783;DHT22;1399;47.072;15.452;2023-04-03T16:36:46;11.90;22.20
2783;DHT22;1399;47.072;15.452;2023-04-03T16:39:11;11.90;22.80
2783;DHT22;1399;47.072;15.452;2023-04-03T16:41:37;11.90;22.30
2783;DHT22;1399;47.072;15.452;2023-04-03T16:44:03;11.90;22.40
2783;DHT22;1399;47.072;15.452;2023-04-03T16:46:29;11.80;22.50
2783;DHT22;1399;47.072;15.452;2023-04-03T16:48:55;11.80;22.60
2783;DHT22;1399;47.072;15.452;2023-04-03T16:51:20;11.80;22.80
2783;DHT22;1399;47.072;15.452;2023-04-03T16:53:46;11.80;22.80
2783;DHT22;1399;47.072;15.452;2023-04-03T16:56:12;11.70;22.90
2783;DHT22;1399;47.072;15.452;2023-04-03T16:58:38;11.70;22.90
2783;DHT22;1399;47.072;15.452;2023-04-03T17:01:18;11.70;22.90
2783;DHT22;1399;47.072;15.452;2023-04-03T17:03:44;11.70;22.80
2783;DHT22;1399;47.072;15.452;2023-04-03T17:06:12;11.60;22.60
2783;DHT22;1399;47.072;15.452;2023-04-03T17:08:47;11.60;22.40
2783;DHT22;1399;47.072;15.452;2023-04-03T17:11:13;11.50;22.20
2783;DHT22;1399;47.072;15.452;2023-04-03T17:13:39;11.40;22.00
2783;DHT22;1399;47.072;15.452;2023-04-03T17:16:08;11.40;21.90
2783;DHT22;1399;47.072;15.452;2023-04-03T17:18:35;11.30;21.70
2783;DHT22;1399;47.072;15.452;2023-04-03T17:21:02;11.30;21.60
2783;DHT22;1399;47.072;15.452;2023-04-03T17:23:29;11.20;21.50
2783;DHT22;1399;47.072;15.452;2023-04-03T17:25:55;11.20;21.60
2783;DHT22;1399;47.072;15.452;2023-04-03T17:28:22;11.10;21.60
2783;DHT22;1399;47.072;15.452;2023-04-03T17:30:54;11.10;21.50
2783;DHT22;1399;47.072;15.452;2023-04-03T17:33:20;11.00;21.50
2783;DHT22;1399;47.072;15.452;2023-04-03T17:35:46;11.00;21.50
2783;DHT22;1399;47.072;15.452;2023-04-03T17:38:12;10.90;21.50
2783;DHT22;1399;47.072;15.452;2023-04-03T17:40:38;10.90;21.70
2783;DHT22;1399;47.072;15.452;2023-04-03T17:43:04;10.90;21.80
2783;DHT22;1399;47.072;15.452;2023-04-03T17:45:30;10.80;21.70
2783;DHT22;1399;47.072;15.452;2023-04-03T17:47:56;10.80;21.70
2783;DHT22;1399;47.072;15.452;2023-04-03T17:50:22;10.80;21.80
2783;DHT22;1399;47.072;15.452;2023-04-03T17:52:48;10.70;21.80
2783;DHT22;1399;47.072;15.452;2023-04-03T17:55:14;10.70;21.80
2783;DHT22;1399;47.072;15.452;2023-04-03T17:57:42;10.60;21.80
2783;DHT22;1399;47.072;15.452;2023-04-03T18:00:09;10.60;21.90
2783;DHT22;1399;47.072;15.452;2023-04-03T18:02:35;10.60;21.90
2783;DHT22;1399;47.072;15.452;2023-04-03T18:05:01;10.50;21.90
2783;DHT22;1399;47.072;15.452;2023-04-03T18:07:27;10.50;22.00
2783;DHT22;1399;47.072;15.452;2023-04-03T18:09:56;10.50;22.10